createdAt,value
2019-02-16T00:01:12.648Z,94.10
2019-02-16T00:03:43.366Z,94.40
2019-02-16T00:06:14.417Z,94.60
2019-02-16T00:08:45.134Z,94.50
2019-02-16T00:11:15.815Z,94.30
2019-02-16T00:13:46.495Z,94.40
2019-02-16T00:16:17.118Z,94.30
2019-02-16T00:18:48.086Z,94.30
2019-02-16T00:21:18.966Z,94.40
2019-02-16T00:23:49.722Z,94.30
2019-02-16T00:26:20.369Z,94.40
2019-02-16T00:28:50.985Z,94.50
2019-02-16T00:31:21.686Z,94.40
2019-02-16T00:33:52.326Z,94.30
2019-02-16T00:36:22.986Z,94.10
2019-02-16T00:38:54.187Z,94.00
2019-02-16T00:41:25.152Z,94.30
2019-02-16T00:43:55.866Z,94.40
2019-02-16T00:46:26.561Z,94.30
2019-02-16T00:48:57.334Z,94.40
2019-02-16T00:51:28.127Z,94.30
2019-02-16T00:53:59.001Z,94.10
2019-02-16T00:56:29.637Z,94.00
2019-02-16T00:59:00.354Z,93.90
2019-02-16T01:01:30.951Z,93.80
2019-02-16T01:04:01.758Z,93.70
2019-02-16T01:06:32.837Z,93.60
2019-02-16T01:09:05.158Z,93.50
2019-02-16T01:11:36.350Z,93.30
2019-02-16T01:14:07.162Z,93.20
2019-02-16T01:16:37.970Z,93.10
2019-02-16T01:19:08.934Z,92.90
2019-02-16T01:21:39.796Z,92.80
2019-02-16T01:24:10.510Z,92.70
2019-02-16T01:26:41.202Z,92.70
2019-02-16T01:29:11.909Z,92.70
2019-02-16T01:31:42.648Z,92.70
2019-02-16T01:34:13.793Z,92.60
2019-02-16T01:36:44.635Z,92.60
2019-02-16T01:39:15.577Z,92.50
2019-02-16T01:41:47.568Z,92.40
2019-02-16T01:44:18.884Z,92.40
2019-02-16T01:46:49.626Z,92.30
2019-02-16T01:49:20.277Z,92.10
2019-02-16T02:09:57.508Z,91.20
2019-02-16T02:12:28.328Z,91.20
2019-02-16T02:14:59.155Z,91.30
2019-02-16T02:17:29.927Z,91.40
2019-02-16T02:20:00.610Z,91.40
2019-02-16T02:22:31.386Z,91.50
2019-02-16T02:25:02.171Z,91.60
2019-02-16T02:27:34.850Z,91.70
2019-02-16T02:30:06.232Z,91.60
2019-02-16T02:32:37.193Z,91.70
2019-02-16T02:35:08.631Z,91.80
2019-02-16T02:37:39.520Z,92.00
2019-02-16T02:40:10.280Z,92.20
2019-02-16T02:42:41.047Z,92.40
2019-02-16T02:45:11.820Z,92.40
2019-02-16T02:47:42.764Z,92.50
2019-02-16T02:50:14.476Z,92.60
2019-02-16T02:52:45.456Z,92.70
2019-02-16T02:55:16.489Z,92.60
2019-02-16T02:57:48.191Z,92.60
2019-02-16T03:00:19.015Z,92.50
2019-02-16T03:02:49.792Z,92.60
2019-02-16T03:05:20.539Z,92.70
2019-02-16T03:07:51.565Z,92.70
2019-02-16T03:10:22.326Z,92.70
2019-02-16T03:12:53.323Z,92.80
2019-02-16T03:15:24.132Z,92.80
2019-02-16T03:17:54.844Z,92.70
2019-02-16T03:20:25.793Z,92.60
2019-02-16T03:23:13.431Z,92.60
2019-02-16T03:25:54.370Z,92.60
2019-02-16T03:28:30.778Z,92.50
2019-02-16T03:31:24.055Z,92.50
2019-02-16T03:34:04.263Z,92.40
2019-02-16T03:37:18.163Z,92.50
2019-02-16T03:39:48.918Z,92.60
2019-02-16T03:42:19.718Z,92.70
2019-02-16T03:44:50.458Z,92.90
2019-02-16T03:47:22.233Z,92.80
2019-02-16T03:49:52.976Z,92.70
2019-02-16T03:52:23.819Z,92.80
2019-02-16T03:54:54.747Z,92.80
2019-02-16T03:57:25.557Z,93.00
2019-02-16T03:59:56.448Z,93.10
2019-02-16T04:02:27.263Z,93.10
2019-02-16T04:04:58.011Z,93.10
2019-02-16T04:07:28.940Z,93.10
2019-02-16T04:09:59.730Z,93.10
2019-02-16T04:12:30.578Z,93.20
2019-02-16T04:15:02.188Z,93.10
2019-02-16T04:17:33.043Z,93.10
2019-02-16T04:20:03.940Z,93.40
2019-02-16T04:22:36.196Z,93.50
2019-02-16T04:25:07.196Z,93.50
2019-02-16T04:27:38.172Z,93.70
2019-02-16T04:30:09.861Z,93.90
2019-02-16T04:32:41.438Z,93.90
2019-02-16T04:35:12.122Z,93.70
2019-02-16T04:37:42.785Z,93.70
2019-02-16T04:40:13.503Z,93.60
2019-02-16T04:42:44.249Z,93.70
2019-02-16T04:45:15.300Z,93.90
2019-02-16T04:47:46.716Z,94.00
2019-02-16T04:50:17.862Z,94.10
2019-02-16T04:52:48.588Z,94.20
2019-02-16T04:55:19.347Z,94.10
2019-02-16T04:57:50.123Z,94.20
2019-02-16T05:00:21.593Z,94.10
2019-02-16T05:02:52.722Z,94.00
2019-02-16T05:05:23.983Z,93.90
2019-02-16T05:07:55.245Z,93.80
2019-02-16T05:10:26.014Z,93.80
2019-02-16T05:12:57.207Z,93.70
2019-02-16T05:15:27.905Z,93.60
2019-02-16T05:17:58.630Z,93.60
2019-02-16T05:20:29.363Z,93.80
2019-02-16T05:23:00.148Z,93.90
2019-02-16T05:25:31.121Z,93.90
2019-02-16T05:28:01.968Z,93.90
2019-02-16T05:30:32.744Z,93.80
2019-02-16T05:33:03.437Z,93.90
2019-02-16T05:35:34.342Z,93.80
2019-02-16T05:38:05.134Z,93.80
2019-02-16T05:40:35.972Z,93.70
2019-02-16T05:43:06.628Z,93.70
2019-02-16T05:45:37.393Z,93.70
2019-02-16T05:48:08.118Z,93.70
2019-02-16T05:50:38.938Z,94.00
2019-02-16T05:53:09.556Z,93.70
2019-02-16T05:55:40.302Z,93.60
2019-02-16T05:58:11.067Z,93.70
2019-02-16T06:00:41.838Z,93.60
2019-02-16T06:03:12.565Z,93.70
2019-02-16T06:05:43.239Z,93.70
2019-02-16T06:08:14.252Z,93.70
2019-02-16T06:10:44.950Z,93.70
2019-02-16T06:13:15.641Z,93.90
2019-02-16T06:15:46.414Z,93.60
2019-02-16T06:18:17.121Z,93.60
2019-02-16T06:20:48.133Z,93.70
2019-02-16T06:23:19.071Z,93.70
2019-02-16T06:25:49.913Z,93.70
2019-02-16T06:28:20.579Z,93.70
2019-02-16T06:30:51.357Z,93.80
2019-02-16T06:33:22.054Z,93.80
2019-02-16T06:35:59.579Z,93.80
2019-02-16T06:38:30.266Z,93.90
2019-02-16T06:41:00.954Z,93.80
2019-02-16T06:43:31.585Z,93.90
2019-02-16T06:46:02.273Z,93.80
2019-02-16T06:48:33.001Z,93.70
2019-02-16T06:51:03.740Z,93.80
2019-02-16T06:53:34.486Z,93.90
2019-02-16T06:56:12.278Z,93.90
2019-02-16T06:58:43.994Z,93.90
2019-02-16T07:01:14.767Z,93.90
2019-02-16T07:03:45.666Z,94.40
2019-02-16T07:06:16.484Z,94.10
2019-02-16T07:08:47.254Z,94.30
2019-02-16T07:11:19.445Z,94.30
2019-02-16T07:13:50.155Z,94.40
2019-02-16T07:16:43.083Z,94.30
2019-02-16T07:19:21.018Z,94.10
2019-02-16T07:21:51.811Z,93.90
2019-02-16T07:24:22.590Z,93.90
2019-02-16T07:26:53.312Z,93.90
2019-02-16T07:29:24.049Z,93.90
2019-02-16T07:31:55.379Z,93.80
2019-02-16T07:34:26.211Z,93.90
2019-02-16T07:36:57.475Z,93.90
2019-02-16T07:39:28.207Z,93.80
2019-02-16T07:41:58.915Z,93.70
2019-02-16T07:44:57.637Z,93.70
2019-02-16T07:47:45.948Z,93.60
2019-02-16T07:50:25.454Z,93.80
2019-02-16T07:53:31.151Z,94.20
2019-02-16T07:56:30.923Z,94.10
2019-02-16T07:59:09.169Z,93.80
2019-02-16T08:01:46.667Z,93.60
2019-02-16T08:04:31.118Z,93.40
2019-02-16T08:07:35.765Z,93.30
2019-02-16T08:10:33.720Z,93.30
2019-02-16T08:13:17.362Z,93.10
2019-02-16T08:16:05.342Z,92.90
2019-02-16T08:19:06.926Z,92.70
2019-02-16T08:21:48.544Z,92.60
2019-02-16T08:24:50.137Z,92.30
2019-02-16T08:27:51.928Z,92.30
2019-02-16T08:30:47.606Z,92.20
2019-02-16T08:33:34.195Z,92.00
2019-02-16T08:36:18.082Z,92.00
2019-02-16T08:39:11.019Z,92.20
2019-02-16T08:41:53.318Z,92.00
2019-02-16T08:45:02.990Z,91.80
2019-02-16T08:47:48.654Z,91.80
2019-02-16T08:50:36.140Z,91.10
2019-02-16T08:53:28.858Z,91.60
2019-02-16T08:56:08.923Z,91.30
2019-02-16T08:58:54.271Z,91.00
2019-02-16T09:01:32.099Z,90.40
2019-02-16T09:04:23.362Z,90.30
2019-02-16T09:07:22.447Z,90.20
2019-02-16T09:10:10.555Z,89.90
2019-02-16T09:12:55.038Z,89.60
2019-02-16T09:15:44.743Z,89.30
2019-02-16T09:18:24.266Z,88.80
2019-02-16T09:21:14.632Z,87.70
2019-02-16T09:23:58.854Z,88.00
2019-02-16T09:26:44.140Z,88.50
2019-02-16T09:29:32.390Z,87.40
2019-02-16T09:32:14.810Z,86.90
2019-02-16T09:35:00.737Z,87.30
2019-02-16T09:37:50.312Z,86.70
2019-02-16T09:40:40.034Z,86.40
2019-02-16T09:43:25.087Z,86.00
2019-02-16T09:46:00.910Z,85.70
2019-02-16T09:49:08.923Z,86.00
2019-02-16T09:51:52.142Z,85.40
2019-02-16T09:54:56.667Z,83.90
2019-02-16T09:57:49.294Z,84.00
2019-02-16T10:00:41.920Z,82.30
2019-02-16T10:03:19.275Z,82.20
2019-02-16T10:06:27.134Z,82.00
2019-02-16T10:09:19.370Z,82.50
2019-02-16T10:11:58.710Z,80.40
2019-02-16T10:14:48.619Z,80.60
2019-02-16T10:17:31.679Z,79.70
2019-02-16T10:20:21.537Z,79.90
2019-02-16T10:22:59.126Z,79.30
2019-02-16T10:25:47.550Z,78.40
2019-02-16T10:28:46.011Z,78.40
2019-02-16T10:31:34.446Z,78.20
2019-02-16T10:34:24.302Z,77.90
2019-02-16T10:37:05.959Z,77.50
2019-02-16T10:39:44.348Z,76.90
2019-02-16T10:42:43.026Z,77.60
2019-02-16T10:45:35.514Z,75.40
2019-02-16T10:48:28.114Z,75.50
2019-02-16T10:51:16.359Z,75.40
2019-02-16T10:53:55.779Z,74.50
2019-02-16T10:56:48.196Z,74.90
2019-02-16T10:59:37.499Z,73.70
2019-02-16T11:02:36.101Z,74.00
2019-02-16T11:05:24.182Z,74.20
2019-02-16T11:08:16.496Z,73.00
2019-02-16T11:11:12.175Z,73.00
2019-02-16T11:14:03.648Z,72.20
2019-02-16T11:16:53.153Z,73.30
2019-02-16T11:19:48.740Z,72.70
2019-02-16T11:22:25.411Z,70.90
2019-02-16T11:25:18.314Z,71.10
2019-02-16T11:28:11.602Z,70.00
2019-02-16T11:30:50.020Z,70.00
2019-02-16T11:33:35.139Z,69.50
2019-02-16T11:36:17.195Z,70.00
2019-02-16T11:39:00.260Z,70.60
2019-02-16T11:41:41.974Z,69.80
2019-02-16T11:44:28.906Z,70.20
2019-02-16T11:47:19.255Z,69.10
2019-02-16T11:50:17.833Z,67.40
2019-02-16T11:53:05.935Z,66.90
2019-02-16T11:56:01.358Z,64.20
2019-02-16T11:58:42.131Z,63.20
2019-02-16T12:01:31.879Z,60.00
2019-02-16T12:04:07.122Z,59.00
2019-02-16T12:06:59.147Z,57.90
2019-02-16T12:09:40.018Z,58.20
2019-02-16T12:12:32.562Z,56.70
2019-02-16T12:15:22.645Z,56.60
2019-02-16T12:18:07.991Z,57.80
2019-02-16T12:21:01.618Z,58.30
2019-02-16T12:23:48.651Z,59.70
2019-02-16T12:26:38.403Z,57.30
2019-02-16T12:29:26.972Z,56.60
2019-02-16T12:32:31.599Z,55.70
2019-02-16T12:35:19.666Z,55.90
2019-02-16T12:38:15.558Z,54.60
2019-02-16T12:41:14.176Z,52.40
2019-02-16T12:44:02.331Z,51.80
2019-02-16T12:46:42.384Z,50.60
2019-02-16T12:49:29.990Z,49.40
2019-02-16T12:52:22.800Z,49.30
2019-02-16T12:55:14.252Z,50.20
2019-02-16T12:57:43.350Z,50.80
2019-02-16T13:00:42.971Z,51.80
2019-02-16T13:03:38.871Z,50.90
2019-02-16T13:06:46.341Z,50.80
2019-02-16T13:09:31.744Z,52.30
2019-02-16T13:12:24.440Z,54.00
2019-02-16T13:15:12.986Z,55.00
2019-02-16T13:17:53.198Z,55.10
2019-02-16T13:20:33.159Z,54.90
2019-02-16T13:23:16.026Z,53.70
2019-02-16T13:25:58.041Z,54.10
2019-02-16T13:28:38.142Z,53.30
2019-02-16T13:31:21.818Z,51.60
2019-02-16T13:34:11.621Z,52.30
2019-02-16T13:37:10.498Z,53.50
2019-02-16T13:39:59.868Z,54.10
2019-02-16T13:42:55.559Z,55.40
2019-02-16T13:45:51.268Z,55.30
2019-02-16T13:48:26.984Z,55.50
2019-02-16T13:51:06.255Z,55.40
2019-02-16T13:53:59.209Z,56.10
2019-02-16T13:56:38.740Z,57.00
2019-02-16T13:59:17.351Z,56.90
2019-02-16T14:01:57.663Z,56.50
2019-02-16T14:04:50.115Z,55.90
2019-02-16T14:07:36.641Z,55.90
2019-02-16T14:10:16.593Z,56.20
2019-02-16T14:13:12.663Z,56.30
2019-02-16T14:16:06.186Z,56.80
2019-02-16T14:18:36.830Z,56.00
2019-02-16T14:21:09.736Z,56.60
2019-02-16T14:23:40.474Z,57.40
2019-02-16T14:26:11.231Z,57.80
2019-02-16T14:28:42.041Z,58.60
2019-02-16T14:31:14.438Z,59.40
2019-02-16T14:33:45.269Z,60.30
2019-02-16T14:36:16.059Z,59.50
2019-02-16T14:38:52.366Z,60.80
2019-02-16T14:41:23.167Z,60.70
2019-02-16T14:43:54.009Z,61.40
2019-02-16T14:46:24.801Z,63.00
2019-02-16T14:48:55.572Z,63.30
2019-02-16T14:51:26.318Z,64.40
2019-02-16T14:53:57.106Z,64.30
2019-02-16T14:56:27.936Z,64.00
2019-02-16T14:58:58.731Z,63.60
2019-02-16T15:01:29.521Z,64.30
2019-02-16T15:04:00.293Z,65.60
2019-02-16T15:06:31.046Z,66.90
2019-02-16T15:09:01.818Z,67.30
2019-02-16T15:11:33.104Z,68.20
2019-02-16T15:14:03.936Z,69.00
2019-02-16T15:16:34.721Z,69.90
2019-02-16T15:19:05.419Z,68.90
2019-02-16T15:21:36.179Z,67.80
2019-02-16T15:24:06.929Z,65.70
2019-02-16T15:26:37.592Z,64.30
2019-02-16T15:29:08.310Z,64.20
2019-02-16T15:31:38.974Z,64.70
2019-02-16T15:34:09.673Z,64.60
2019-02-16T15:36:40.330Z,65.20
2019-02-16T15:39:11.064Z,65.20
2019-02-16T15:41:41.814Z,65.10
2019-02-16T15:44:12.557Z,65.70
2019-02-16T15:46:43.335Z,66.80
2019-02-16T15:49:15.058Z,68.40
2019-02-16T15:51:45.848Z,69.10
2019-02-16T15:54:16.562Z,69.50
2019-02-16T15:56:47.294Z,70.00
2019-02-16T15:59:18.008Z,71.10
2019-02-16T16:01:48.930Z,71.40
2019-02-16T16:04:21.472Z,71.40
2019-02-16T16:06:52.446Z,72.40
2019-02-16T16:09:28.611Z,73.30
2019-02-16T16:12:08.927Z,74.20
2019-02-16T16:14:56.207Z,74.90
2019-02-16T16:17:34.056Z,76.00
2019-02-16T16:20:23.908Z,76.60
2019-02-16T16:23:17.843Z,77.40
2019-02-16T16:26:18.799Z,77.60
2019-02-16T16:29:00.374Z,78.50
2019-02-16T16:31:35.301Z,79.00
2019-02-16T16:34:31.081Z,79.70
2019-02-16T16:37:32.940Z,80.70
2019-02-16T16:40:10.217Z,80.70
2019-02-16T16:43:04.320Z,81.30
2019-02-16T16:45:54.145Z,81.30
2019-02-16T16:49:00.367Z,81.70
2019-02-16T16:51:41.811Z,82.10
2019-02-16T16:54:37.721Z,83.80
2019-02-16T16:57:25.751Z,84.70
2019-02-16T17:00:15.581Z,86.00
2019-02-16T17:03:20.203Z,87.00
2019-02-16T17:06:02.879Z,87.50
2019-02-16T17:09:01.574Z,88.70
2019-02-16T17:11:50.096Z,89.00
2019-02-16T17:14:30.946Z,89.90
2019-02-16T17:17:08.189Z,90.30
2019-02-16T17:20:11.039Z,90.50
2019-02-16T17:23:06.415Z,90.90
2019-02-16T17:26:10.981Z,91.30
2019-02-16T17:28:52.503Z,91.10
2019-02-16T17:31:54.111Z,91.30
2019-02-16T17:34:55.802Z,90.80
2019-02-16T17:37:41.594Z,91.20
2019-02-16T17:40:34.059Z,91.40
2019-02-16T17:43:25.839Z,91.90
2019-02-16T17:46:15.564Z,92.10
2019-02-16T17:49:03.926Z,92.00
2019-02-16T17:51:56.487Z,92.10
2019-02-16T17:55:04.162Z,92.20
2019-02-16T17:57:56.816Z,92.00
2019-02-16T18:00:46.783Z,92.10
2019-02-16T18:03:25.452Z,92.50
2019-02-16T18:06:12.388Z,92.90
2019-02-16T18:09:01.888Z,93.00
2019-02-16T18:12:01.507Z,93.40
2019-02-16T18:14:54.274Z,93.10
2019-02-16T18:17:44.061Z,93.10
2019-02-16T18:20:38.135Z,93.00
2019-02-16T18:23:20.613Z,93.60
2019-02-16T18:26:04.926Z,93.70
2019-02-16T18:28:57.273Z,93.90
2019-02-16T18:31:55.431Z,94.20
2019-02-16T18:34:49.858Z,94.30
2019-02-16T18:37:42.234Z,94.40
2019-02-16T18:40:47.270Z,94.40
2019-02-16T18:43:38.515Z,94.50
2019-02-16T18:46:26.843Z,94.40
2019-02-16T18:49:05.449Z,94.20
2019-02-16T18:51:52.221Z,94.20
2019-02-16T18:54:35.166Z,94.30
2019-02-16T18:57:35.188Z,94.80
2019-02-16T19:00:27.712Z,94.80
2019-02-16T19:03:29.250Z,94.60
2019-02-16T19:06:22.011Z,94.90
2019-02-16T19:09:15.031Z,94.70
2019-02-16T19:12:01.168Z,95.00
2019-02-16T19:14:45.034Z,95.30
2019-02-16T19:17:43.961Z,95.40
2019-02-16T19:20:22.600Z,95.30
2019-02-16T19:22:59.791Z,95.40
2019-02-16T19:25:41.139Z,95.30
2019-02-16T19:28:46.286Z,95.30
2019-02-16T19:31:27.569Z,95.30
2019-02-16T19:34:17.889Z,95.60
2019-02-16T19:37:06.692Z,95.80
2019-02-16T19:40:02.561Z,95.60
2019-02-16T19:43:10.598Z,96.20
2019-02-16T19:45:56.380Z,96.20
2019-02-16T19:48:38.982Z,96.20
2019-02-16T19:51:35.307Z,95.90
2019-02-16T19:54:28.594Z,95.90
2019-02-16T19:57:27.016Z,96.60
2019-02-16T20:00:15.939Z,96.40
2019-02-16T20:03:00.604Z,96.50
2019-02-16T20:05:43.299Z,96.50
2019-02-16T20:08:25.127Z,96.50
2019-02-16T20:11:24.237Z,96.40
2019-02-16T20:14:32.411Z,96.30
2019-02-16T20:17:12.243Z,96.30
2019-02-16T20:19:53.557Z,96.40
2019-02-16T20:22:46.495Z,96.50
2019-02-16T20:25:33.203Z,96.60
2019-02-16T20:28:25.994Z,96.80
2019-02-16T20:31:16.075Z,97.00
2019-02-16T20:34:12.128Z,97.10
2019-02-16T20:36:51.089Z,97.00
2019-02-16T20:39:41.614Z,96.80
2019-02-16T20:42:44.934Z,96.70
2019-02-16T20:45:33.258Z,96.80
2019-02-16T20:48:28.591Z,96.90
2019-02-16T20:51:18.371Z,97.00
2019-02-16T20:54:06.455Z,97.10
2019-02-16T20:56:57.652Z,97.00
2019-02-16T20:59:53.193Z,97.00
2019-02-16T21:02:54.900Z,97.20
2019-02-16T21:05:36.246Z,97.40
2019-02-16T21:08:24.478Z,97.50
2019-02-16T21:11:23.441Z,97.50
2019-02-16T21:14:14.742Z,97.50
2019-02-16T21:17:04.598Z,97.40
2019-02-16T21:19:54.370Z,97.50
2019-02-16T21:22:37.828Z,97.40
2019-02-16T21:25:25.923Z,97.30
2019-02-16T21:28:05.634Z,97.30
2019-02-16T21:31:02.612Z,97.30
2019-02-16T21:33:47.365Z,97.40
2019-02-16T21:36:30.495Z,97.40
2019-02-16T21:39:20.285Z,97.60
2019-02-16T21:42:10.085Z,97.60
2019-02-16T21:45:05.797Z,97.70
2019-02-16T21:48:01.547Z,97.70
2019-02-16T21:50:50.760Z,97.80
2019-02-16T21:53:44.879Z,97.80
2019-02-16T21:56:29.038Z,97.70
2019-02-16T21:59:18.973Z,97.90
2019-02-16T22:01:56.744Z,98.00
2019-02-16T22:04:52.665Z,98.00
2019-02-16T22:07:54.290Z,97.80
2019-02-16T22:10:39.055Z,97.90
2019-02-16T22:13:09.894Z,97.90
2019-02-16T22:15:40.750Z,97.80
2019-02-16T22:18:11.678Z,97.70
2019-02-16T22:20:42.523Z,97.70
2019-02-16T22:23:13.283Z,97.70
2019-02-16T22:25:44.084Z,97.70
2019-02-16T22:28:18.607Z,97.70
2019-02-16T22:30:47.411Z,97.80
2019-02-16T22:33:19.120Z,97.90
2019-02-16T22:35:49.950Z,98.00
2019-02-16T22:38:20.748Z,97.80
2019-02-16T22:40:51.724Z,97.80
2019-02-16T22:43:22.546Z,97.80
2019-02-16T22:45:53.448Z,98.20
2019-02-16T22:48:25.987Z,97.90
2019-02-16T22:50:56.889Z,97.90
2019-02-16T22:53:28.494Z,98.10
2019-02-16T22:55:59.404Z,98.10
2019-02-16T22:58:30.319Z,98.20
2019-02-16T23:01:01.042Z,98.10
2019-02-16T23:03:33.895Z,98.10
2019-02-16T23:06:05.411Z,98.10
2019-02-16T23:08:36.350Z,97.90
2019-02-16T23:11:07.203Z,97.90
2019-02-16T23:13:37.923Z,97.90
2019-02-16T23:16:09.998Z,98.00
2019-02-16T23:18:40.741Z,98.00
2019-02-16T23:21:11.548Z,98.10
2019-02-16T23:23:42.655Z,98.20
2019-02-16T23:26:13.671Z,98.20
2019-02-16T23:28:44.428Z,98.20
2019-02-16T23:31:15.290Z,98.10
2019-02-16T23:33:45.999Z,98.10
2019-02-16T23:36:16.853Z,98.00
2019-02-16T23:38:47.648Z,98.10
2019-02-16T23:41:18.406Z,98.10
2019-02-16T23:43:49.128Z,98.10
2019-02-16T23:46:19.947Z,98.10
2019-02-16T23:48:50.663Z,98.20
2019-02-16T23:51:22.338Z,98.30
2019-02-16T23:53:53.407Z,98.20
2019-02-16T23:56:24.071Z,98.20
2019-02-16T23:58:55.025Z,98.20
